sensor_id;sensor_type;location;lat;lon;timestamp;P1;durP1;ratioP1;P2;durP2;ratioP2
70850;SDS011;58475;49.662;9.636;2022-12-13T00:00:11;29.27;;;13.73;;
70850;SDS011;58475;49.662;9.636;2022-12-13T00:02:42;34.50;;;14.10;;
70850;SDS011;58475;49.662;9.636;2022-12-13T00:05:08;35.33;;;15.47;;
70850;SDS011;58475;49.662;9.636;2022-12-13T00:07:34;31.00;;;14.13;;
70850;SDS011;58475;49.662;9.636;2022-12-13T00:10:00;30.93;;;13.90;;
70850;SDS011;58475;49.662;9.636;2022-12-13T00:12:25;36.53;;;15.47;;
70850;SDS011;58475;49.662;9.636;2022-12-13T00:14:51;34.27;;;14.53;;
70850;SDS011;58475;49.662;9.636;2022-12-13T00:17:17;36.10;;;15.87;;
70850;SDS011;58475;49.662;9.636;2022-12-13T00:19:42;29.83;;;13.63;;
70850;SDS011;58475;49.662;9.636;2022-12-13T00:22:08;32.63;;;14.13;;
70850;SDS011;58475;49.662;9.636;2022-12-13T00:24:33;43.57;;;15.03;;
70850;SDS011;58475;49.662;9.636;2022-12-13T00:26:59;35.50;;;14.47;;
70850;SDS011;58475;49.662;9.636;2022-12-13T00:29:24;37.30;;;15.53;;
70850;SDS011;58475;49.662;9.636;2022-12-13T00:31:50;30.83;;;13.93;;
70850;SDS011;58475;49.662;9.636;2022-12-13T00:34:16;35.17;;;15.07;;
70850;SDS011;58475;49.662;9.636;2022-12-13T00:36:42;32.23;;;14.67;;
70850;SDS011;58475;49.662;9.636;2022-12-13T00:39:08;35.10;;;17.57;;
70850;SDS011;58475;49.662;9.636;2022-12-13T00:41:36;33.07;;;16.13;;
70850;SDS011;58475;49.662;9.636;2022-12-13T00:44:02;32.70;;;14.07;;
70850;SDS011;58475;49.662;9.636;2022-12-13T00:46:28;32.87;;;15.00;;
70850;SDS011;58475;49.662;9.636;2022-12-13T00:48:55;32.27;;;15.20;;
70850;SDS011;58475;49.662;9.636;2022-12-13T00:51:23;33.13;;;14.07;;
70850;SDS011;58475;49.662;9.636;2022-12-13T00:53:49;33.90;;;14.43;;
70850;SDS011;58475;49.662;9.636;2022-12-13T00:56:16;30.03;;;14.43;;
70850;SDS011;58475;49.662;9.636;2022-12-13T00:58:43;38.70;;;15.30;;
70850;SDS011;58475;49.662;9.636;2022-12-13T01:01:10;38.50;;;15.70;;
70850;SDS011;58475;49.662;9.636;2022-12-13T01:03:38;36.63;;;15.73;;
70850;SDS011;58475;49.662;9.636;2022-12-13T01:06:10;39.57;;;16.30;;
70850;SDS011;58475;49.662;9.636;2022-12-13T01:08:37;41.77;;;15.27;;
70850;SDS011;58475;49.662;9.636;2022-12-13T01:11:05;33.37;;;13.93;;
70850;SDS011;58475;49.662;9.636;2022-12-13T01:13:31;34.83;;;15.03;;
70850;SDS011;58475;49.662;9.636;2022-12-13T01:15:57;34.03;;;14.37;;
70850;SDS011;58475;49.662;9.636;2022-12-13T01:18:22;38.67;;;15.13;;
70850;SDS011;58475;49.662;9.636;2022-12-13T01:21:01;32.63;;;15.83;;
70850;SDS011;58475;49.662;9.636;2022-12-13T01:23:36;30.60;;;15.07;;
70850;SDS011;58475;49.662;9.636;2022-12-13T01:26:02;35.27;;;14.83;;
70850;SDS011;58475;49.662;9.636;2022-12-13T01:28:29;38.80;;;16.43;;
70850;SDS011;58475;49.662;9.636;2022-12-13T01:30:59;37.23;;;16.17;;
70850;SDS011;58475;49.662;9.636;2022-12-13T01:33:27;39.33;;;15.40;;
70850;SDS011;58475;49.662;9.636;2022-12-13T01:35:53;38.63;;;14.37;;
70850;SDS011;58475;49.662;9.636;2022-12-13T01:38:19;38.47;;;15.73;;
70850;SDS011;58475;49.662;9.636;2022-12-13T01:40:46;37.93;;;15.07;;
70850;SDS011;58475;49.662;9.636;2022-12-13T01:43:22;30.13;;;13.87;;
70850;SDS011;58475;49.662;9.636;2022-12-13T01:45:49;39.53;;;14.13;;
70850;SDS011;58475;49.662;9.636;2022-12-13T01:48:16;32.87;;;15.33;;
70850;SDS011;58475;49.662;9.636;2022-12-13T01:50:46;34.33;;;13.90;;
70850;SDS011;58475;49.662;9.636;2022-12-13T01:53:14;41.20;;;14.43;;
70850;SDS011;58475;49.662;9.636;2022-12-13T01:55:45;29.37;;;13.63;;
70850;SDS011;58475;49.662;9.636;2022-12-13T01:58:16;32.70;;;13.17;;
70850;SDS011;58475;49.662;9.636;2022-12-13T02:00:42;36.47;;;12.33;;
70850;SDS011;58475;49.662;9.636;2022-12-13T02:03:13;27.97;;;13.63;;
70850;SDS011;58475;49.662;9.636;2022-12-13T02:05:44;31.25;;;12.80;;
70850;SDS011;58475;49.662;9.636;2022-12-13T02:08:15;31.47;;;13.47;;
70850;SDS011;58475;49.662;9.636;2022-12-13T02:10:43;29.83;;;13.43;;
70850;SDS011;58475;49.662;9.636;2022-12-13T02:13:09;33.53;;;14.33;;
70850;SDS011;58475;49.662;9.636;2022-12-13T02:18:32;65.37;;;15.07;;
70850;SDS011;58475;49.662;9.636;2022-12-13T02:21:00;27.60;;;13.83;;
70850;SDS011;58475;49.662;9.636;2022-12-13T02:26:09;34.87;;;15.30;;
70850;SDS011;58475;49.662;9.636;2022-12-13T02:31:28;32.77;;;13.93;;
70850;SDS011;58475;49.662;9.636;2022-12-13T02:34:26;37.87;;;15.03;;
70850;SDS011;58475;49.662;9.636;2022-12-13T02:39:46;35.63;;;12.90;;
70850;SDS011;58475;49.662;9.636;2022-12-13T02:42:22;33.30;;;14.67;;
70850;SDS011;58475;49.662;9.636;2022-12-13T02:47:38;31.93;;;14.67;;
70850;SDS011;58475;49.662;9.636;2022-12-13T02:50:07;31.57;;;13.83;;
70850;SDS011;58475;49.662;9.636;2022-12-13T02:52:36;33.37;;;13.90;;
70850;SDS011;58475;49.662;9.636;2022-12-13T02:55:10;33.70;;;14.20;;
70850;SDS011;58475;49.662;9.636;2022-12-13T02:57:41;36.77;;;13.00;;
70850;SDS011;58475;49.662;9.636;2022-12-13T03:00:13;43.40;;;14.93;;
70850;SDS011;58475;49.662;9.636;2022-12-13T03:10:42;42.73;;;15.43;;
70850;SDS011;58475;49.662;9.636;2022-12-13T03:13:13;39.92;;;14.32;;
70850;SDS011;58475;49.662;9.636;2022-12-13T03:16:11;41.33;;;13.43;;
70850;SDS011;58475;49.662;9.636;2022-12-13T03:18:58;36.33;;;14.77;;
70850;SDS011;58475;49.662;9.636;2022-12-13T03:21:27;38.47;;;13.43;;
70850;SDS011;58475;49.662;9.636;2022-12-13T03:23:59;35.03;;;13.97;;
70850;SDS011;58475;49.662;9.636;2022-12-13T03:26:25;32.20;;;12.97;;
70850;SDS011;58475;49.662;9.636;2022-12-13T03:28:51;35.40;;;14.10;;
70850;SDS011;58475;49.662;9.636;2022-12-13T03:31:17;44.17;;;14.03;;
70850;SDS011;58475;49.662;9.636;2022-12-13T03:33:43;44.57;;;14.73;;
70850;SDS011;58475;49.662;9.636;2022-12-13T03:36:09;35.63;;;14.30;;
70850;SDS011;58475;49.662;9.636;2022-12-13T03:38:35;34.23;;;13.63;;
70850;SDS011;58475;49.662;9.636;2022-12-13T03:41:03;34.93;;;13.20;;
70850;SDS011;58475;49.662;9.636;2022-12-13T03:43:31;41.80;;;15.90;;
70850;SDS011;58475;49.662;9.636;2022-12-13T03:45:58;37.47;;;14.00;;
70850;SDS011;58475;49.662;9.636;2022-12-13T03:48:25;31.97;;;14.00;;
70850;SDS011;58475;49.662;9.636;2022-12-13T03:50:51;48.57;;;19.33;;
70850;SDS011;58475;49.662;9.636;2022-12-13T03:53:18;33.30;;;15.53;;
70850;SDS011;58475;49.662;9.636;2022-12-13T03:55:44;45.47;;;16.47;;
70850;SDS011;58475;49.662;9.636;2022-12-13T03:58:10;36.80;;;17.93;;
70850;SDS011;58475;49.662;9.636;2022-12-13T04:00:35;34.17;;;14.73;;
70850;SDS011;58475;49.662;9.636;2022-12-13T04:03:01;29.57;;;14.20;;
70850;SDS011;58475;49.662;9.636;2022-12-13T04:05:26;37.87;;;16.57;;
70850;SDS011;58475;49.662;9.636;2022-12-13T04:07:53;32.60;;;14.00;;
70850;SDS011;58475;49.662;9.636;2022-12-13T04:10:19;34.37;;;13.60;;
70850;SDS011;58475;49.662;9.636;2022-12-13T04:12:44;37.30;;;14.00;;
70850;SDS011;58475;49.662;9.636;2022-12-13T04:15:28;38.83;;;14.27;;
70850;SDS011;58475;49.662;9.636;2022-12-13T04:17:54;24.67;;;12.73;;
70850;SDS011;58475;49.662;9.636;2022-12-13T04:20:19;48.00;;;15.80;;
70850;SDS011;58475;49.662;9.636;2022-12-13T04:22:45;38.50;;;14.60;;
70850;SDS011;58475;49.662;9.636;2022-12-13T04:25:11;34.53;;;12.43;;
70850;SDS011;58475;49.662;9.636;2022-12-13T04:27:36;33.87;;;14.83;;
70850;SDS011;58475;49.662;9.636;2022-12-13T04:30:03;29.57;;;13.43;;
70850;SDS011;58475;49.662;9.636;2022-12-13T04:32:29;39.83;;;14.70;;
70850;SDS011;58475;49.662;9.636;2022-12-13T04:34:55;39.43;;;15.30;;
70850;SDS011;58475;49.662;9.636;2022-12-13T04:37:20;35.27;;;15.23;;
70850;SDS011;58475;49.662;9.636;2022-12-13T04:39:46;35.90;;;13.77;;
70850;SDS011;58475;49.662;9.636;2022-12-13T04:42:11;32.13;;;14.57;;
70850;SDS011;58475;49.662;9.636;2022-12-13T04:44:37;29.30;;;13.40;;
70850;SDS011;58475;49.662;9.636;2022-12-13T04:47:02;32.07;;;14.37;;
70850;SDS011;58475;49.662;9.636;2022-12-13T04:49:28;34.40;;;15.33;;
70850;SDS011;58475;49.662;9.636;2022-12-13T04:51:54;30.03;;;14.23;;
70850;SDS011;58475;49.662;9.636;2022-12-13T04:54:20;32.30;;;13.07;;
70850;SDS011;58475;49.662;9.636;2022-12-13T04:56:48;24.90;;;12.60;;
70850;SDS011;58475;49.662;9.636;2022-12-13T04:59:14;33.63;;;14.10;;
70850;SDS011;58475;49.662;9.636;2022-12-13T05:01:40;31.07;;;11.90;;
70850;SDS011;58475;49.662;9.636;2022-12-13T05:04:06;32.77;;;14.47;;
70850;SDS011;58475;49.662;9.636;2022-12-13T05:06:31;33.70;;;12.93;;
70850;SDS011;58475;49.662;9.636;2022-12-13T05:08:57;31.70;;;13.93;;
70850;SDS011;58475;49.662;9.636;2022-12-13T05:11:22;31.23;;;13.93;;
70850;SDS011;58475;49.662;9.636;2022-12-13T05:13:48;36.20;;;14.90;;
70850;SDS011;58475;49.662;9.636;2022-12-13T05:16:14;34.73;;;14.40;;
70850;SDS011;58475;49.662;9.636;2022-12-13T05:18:40;32.73;;;13.67;;
70850;SDS011;58475;49.662;9.636;2022-12-13T05:21:06;28.43;;;13.30;;
70850;SDS011;58475;49.662;9.636;2022-12-13T05:23:35;27.43;;;11.93;;
70850;SDS011;58475;49.662;9.636;2022-12-13T05:26:01;31.13;;;12.47;;
70850;SDS011;58475;49.662;9.636;2022-12-13T05:28:28;31.60;;;12.83;;
70850;SDS011;58475;49.662;9.636;2022-12-13T05:30:54;29.90;;;13.47;;
70850;SDS011;58475;49.662;9.636;2022-12-13T05:33:22;27.57;;;12.47;;
70850;SDS011;58475;49.662;9.636;2022-12-13T05:35:48;29.73;;;13.53;;
70850;SDS011;58475;49.662;9.636;2022-12-13T05:38:14;28.60;;;13.73;;
70850;SDS011;58475;49.662;9.636;2022-12-13T05:40:40;33.00;;;15.03;;
70850;SDS011;58475;49.662;9.636;2022-12-13T05:43:06;35.97;;;14.07;;
70850;SDS011;58475;49.662;9.636;2022-12-13T05:45:33;28.70;;;12.90;;
70850;SDS011;58475;49.662;9.636;2022-12-13T05:47:58;33.10;;;14.50;;
70850;SDS011;58475;49.662;9.636;2022-12-13T05:50:24;31.93;;;14.67;;
70850;SDS011;58475;49.662;9.636;2022-12-13T05:52:49;30.80;;;13.93;;
70850;SDS011;58475;49.662;9.636;2022-12-13T05:55:15;40.20;;;15.97;;
70850;SDS011;58475;49.662;9.636;2022-12-13T05:57:42;37.33;;;15.43;;
70850;SDS011;58475;49.662;9.636;2022-12-13T06:00:08;26.57;;;13.67;;
70850;SDS011;58475;49.662;9.636;2022-12-13T06:02:40;34.57;;;13.47;;
70850;SDS011;58475;49.662;9.636;2022-12-13T06:05:08;33.00;;;15.75;;
70850;SDS011;58475;49.662;9.636;2022-12-13T06:07:38;39.37;;;16.07;;
70850;SDS011;58475;49.662;9.636;2022-12-13T06:10:04;38.80;;;14.70;;
70850;SDS011;58475;49.662;9.636;2022-12-13T06:12:31;40.43;;;14.10;;
70850;SDS011;58475;49.662;9.636;2022-12-13T06:14:59;34.60;;;14.27;;
70850;SDS011;58475;49.662;9.636;2022-12-13T06:17:25;33.77;;;13.57;;
70850;SDS011;58475;49.662;9.636;2022-12-13T06:19:53;29.30;;;13.73;;
70850;SDS011;58475;49.662;9.636;2022-12-13T06:22:19;31.83;;;13.67;;
70850;SDS011;58475;49.662;9.636;2022-12-13T06:24:44;29.47;;;13.33;;
70850;SDS011;58475;49.662;9.636;2022-12-13T06:27:10;32.67;;;15.23;;
70850;SDS011;58475;49.662;9.636;2022-12-13T06:29:36;33.03;;;14.27;;
70850;SDS011;58475;49.662;9.636;2022-12-13T06:32:01;38.00;;;14.50;;
70850;SDS011;58475;49.662;9.636;2022-12-13T06:34:27;31.03;;;14.57;;
70850;SDS011;58475;49.662;9.636;2022-12-13T06:36:55;29.10;;;14.90;;
70850;SDS011;58475;49.662;9.636;2022-12-13T06:39:20;31.23;;;15.47;;
70850;SDS011;58475;49.662;9.636;2022-12-13T06:41:45;34.10;;;14.67;;
70850;SDS011;58475;49.662;9.636;2022-12-13T06:44:11;27.23;;;13.50;;
70850;SDS011;58475;49.662;9.636;2022-12-13T06:46:37;31.57;;;13.87;;
70850;SDS011;58475;49.662;9.636;2022-12-13T06:49:03;34.93;;;15.13;;
70850;SDS011;58475;49.662;9.636;2022-12-13T06:51:32;35.03;;;14.37;;
70850;SDS011;58475;49.662;9.636;2022-12-13T06:53:59;35.83;;;14.73;;
70850;SDS011;58475;49.662;9.636;2022-12-13T06:56:28;37.53;;;15.57;;
70850;SDS011;58475;49.662;9.636;2022-12-13T06:58:56;36.13;;;15.87;;
70850;SDS011;58475;49.662;9.636;2022-12-13T07:01:21;32.03;;;14.13;;
70850;SDS011;58475;49.662;9.636;2022-12-13T07:03:47;33.93;;;15.33;;
70850;SDS011;58475;49.662;9.636;2022-12-13T07:06:14;39.03;;;15.50;;
70850;SDS011;58475;49.662;9.636;2022-12-13T07:08:48;37.00;;;15.30;;
70850;SDS011;58475;49.662;9.636;2022-12-13T07:11:16;25.03;;;13.07;;
70850;SDS011;58475;49.662;9.636;2022-12-13T07:13:43;32.90;;;14.13;;
70850;SDS011;58475;49.662;9.636;2022-12-13T07:16:09;28.90;;;13.40;;
70850;SDS011;58475;49.662;9.636;2022-12-13T07:18:36;33.10;;;13.47;;
70850;SDS011;58475;49.662;9.636;2022-12-13T07:21:06;27.73;;;12.63;;
70850;SDS011;58475;49.662;9.636;2022-12-13T07:23:33;31.50;;;12.90;;
70850;SDS011;58475;49.662;9.636;2022-12-13T07:26:00;32.83;;;14.93;;
70850;SDS011;58475;49.662;9.636;2022-12-13T07:28:26;30.30;;;14.53;;
70850;SDS011;58475;49.662;9.636;2022-12-13T07:30:52;38.90;;;15.17;;
70850;SDS011;58475;49.662;9.636;2022-12-13T07:33:17;37.17;;;15.57;;
70850;SDS011;58475;49.662;9.636;2022-12-13T07:35:43;35.60;;;16.27;;
70850;SDS011;58475;49.662;9.636;2022-12-13T07:38:09;38.53;;;15.37;;
70850;SDS011;58475;49.662;9.636;2022-12-13T07:40:36;38.60;;;15.70;;
70850;SDS011;58475;49.662;9.636;2022-12-13T07:43:03;37.27;;;16.13;;
70850;SDS011;58475;49.662;9.636;2022-12-13T07:45:29;37.27;;;17.03;;
70850;SDS011;58475;49.662;9.636;2022-12-13T07:47:55;41.10;;;16.90;;
70850;SDS011;58475;49.662;9.636;2022-12-13T07:50:21;35.30;;;16.23;;
70850;SDS011;58475;49.662;9.636;2022-12-13T07:52:49;39.60;;;16.00;;
70850;SDS011;58475;49.662;9.636;2022-12-13T07:55:16;34.40;;;16.50;;
70850;SDS011;58475;49.662;9.636;2022-12-13T07:57:43;34.23;;;16.10;;
70850;SDS011;58475;49.662;9.636;2022-12-13T08:00:09;35.03;;;15.73;;
70850;SDS011;58475;49.662;9.636;2022-12-13T08:02:39;40.70;;;17.00;;
70850;SDS011;58475;49.662;9.636;2022-12-13T08:05:05;38.90;;;17.13;;
70850;SDS011;58475;49.662;9.636;2022-12-13T08:07:31;35.20;;;15.80;;
70850;SDS011;58475;49.662;9.636;2022-12-13T08:09:56;33.33;;;16.30;;
70850;SDS011;58475;49.662;9.636;2022-12-13T08:12:22;35.67;;;16.60;;
70850;SDS011;58475;49.662;9.636;2022-12-13T08:14:47;41.23;;;16.23;;
70850;SDS011;58475;49.662;9.636;2022-12-13T08:17:13;31.17;;;15.20;;
70850;SDS011;58475;49.662;9.636;2022-12-13T08:19:38;33.87;;;15.53;;
70850;SDS011;58475;49.662;9.636;2022-12-13T08:22:04;26.33;;;13.50;;
70850;SDS011;58475;49.662;9.636;2022-12-13T08:24:30;30.93;;;15.13;;
70850;SDS011;58475;49.662;9.636;2022-12-13T08:26:57;30.77;;;14.47;;
70850;SDS011;58475;49.662;9.636;2022-12-13T08:29:27;35.40;;;16.98;;
70850;SDS011;58475;49.662;9.636;2022-12-13T08:31:54;36.30;;;16.57;;
70850;SDS011;58475;49.662;9.636;2022-12-13T08:34:20;42.73;;;18.20;;
70850;SDS011;58475;49.662;9.636;2022-12-13T08:36:45;40.73;;;16.47;;
70850;SDS011;58475;49.662;9.636;2022-12-13T08:39:11;40.80;;;18.20;;
70850;SDS011;58475;49.662;9.636;2022-12-13T08:41:36;42.30;;;17.73;;
70850;SDS011;58475;49.662;9.636;2022-12-13T08:44:02;44.37;;;17.83;;
70850;SDS011;58475;49.662;9.636;2022-12-13T08:46:27;42.67;;;19.73;;
70850;SDS011;58475;49.662;9.636;2022-12-13T08:48:53;39.17;;;18.87;;
70850;SDS011;58475;49.662;9.636;2022-12-13T08:51:18;33.03;;;16.17;;
70850;SDS011;58475;49.662;9.636;2022-12-13T08:53:48;41.10;;;18.23;;
70850;SDS011;58475;49.662;9.636;2022-12-13T08:56:15;42.50;;;20.87;;
70850;SDS011;58475;49.662;9.636;2022-12-13T08:58:42;42.77;;;19.53;;
70850;SDS011;58475;49.662;9.636;2022-12-13T09:01:09;43.00;;;20.33;;
70850;SDS011;58475;49.662;9.636;2022-12-13T09:03:35;44.43;;;20.53;;
70850;SDS011;58475;49.662;9.636;2022-12-13T09:06:08;44.13;;;19.07;;
70850;SDS011;58475;49.662;9.636;2022-12-13T09:08:36;38.97;;;15.87;;
70850;SDS011;58475;49.662;9.636;2022-12-13T09:11:02;36.07;;;16.53;;
70850;SDS011;58475;49.662;9.636;2022-12-13T09:13:29;34.83;;;16.87;;
70850;SDS011;58475;49.662;9.636;2022-12-13T09:15:56;40.10;;;17.60;;
70850;SDS011;58475;49.662;9.636;2022-12-13T09:18:23;42.10;;;18.30;;
70850;SDS011;58475;49.662;9.636;2022-12-13T09:20:49;48.23;;;21.37;;
70850;SDS011;58475;49.662;9.636;2022-12-13T09:23:15;40.03;;;19.93;;
70850;SDS011;58475;49.662;9.636;2022-12-13T09:25:41;39.20;;;18.70;;
70850;SDS011;58475;49.662;9.636;2022-12-13T09:28:06;39.23;;;17.73;;
70850;SDS011;58475;49.662;9.636;2022-12-13T09:30:34;45.73;;;18.33;;
70850;SDS011;58475;49.662;9.636;2022-12-13T09:33:01;39.13;;;18.27;;
70850;SDS011;58475;49.662;9.636;2022-12-13T09:35:27;43.47;;;19.17;;
70850;SDS011;58475;49.662;9.636;2022-12-13T09:37:53;39.53;;;17.50;;
70850;SDS011;58475;49.662;9.636;2022-12-13T09:40:23;40.03;;;17.93;;
70850;SDS011;58475;49.662;9.636;2022-12-13T09:42:52;36.47;;;17.83;;
70850;SDS011;58475;49.662;9.636;2022-12-13T09:45:20;38.43;;;17.87;;
70850;SDS011;58475;49.662;9.636;2022-12-13T09:47:46;39.13;;;18.37;;
70850;SDS011;58475;49.662;9.636;2022-12-13T09:50:14;32.20;;;16.63;;
70850;SDS011;58475;49.662;9.636;2022-12-13T09:52:45;32.50;;;16.27;;
70850;SDS011;58475;49.662;9.636;2022-12-13T09:57:47;33.33;;;15.93;;
70850;SDS011;58475;49.662;9.636;2022-12-13T10:00:16;34.73;;;16.27;;
70850;SDS011;58475;49.662;9.636;2022-12-13T10:05:15;37.57;;;17.37;;
70850;SDS011;58475;49.662;9.636;2022-12-13T10:08:03;36.83;;;16.43;;
70850;SDS011;58475;49.662;9.636;2022-12-13T10:10:59;33.00;;;15.60;;
70850;SDS011;58475;49.662;9.636;2022-12-13T10:16:30;33.27;;;14.73;;
70850;SDS011;58475;49.662;9.636;2022-12-13T10:19:00;29.87;;;14.13;;
70850;SDS011;58475;49.662;9.636;2022-12-13T10:21:35;34.13;;;14.60;;
70850;SDS011;58475;49.662;9.636;2022-12-13T10:24:09;33.30;;;14.30;;
70850;SDS011;58475;49.662;9.636;2022-12-13T10:26:39;32.57;;;15.10;;
70850;SDS011;58475;49.662;9.636;2022-12-13T10:29:06;31.73;;;15.10;;
70850;SDS011;58475;49.662;9.636;2022-12-13T10:31:46;32.10;;;15.00;;
70850;SDS011;58475;49.662;9.636;2022-12-13T10:34:20;29.47;;;14.57;;
70850;SDS011;58475;49.662;9.636;2022-12-13T10:36:49;32.03;;;14.83;;
70850;SDS011;58475;49.662;9.636;2022-12-13T10:39:17;29.40;;;15.03;;
70850;SDS011;58475;49.662;9.636;2022-12-13T10:42:05;29.57;;;14.43;;
70850;SDS011;58475;49.662;9.636;2022-12-13T10:44:37;26.13;;;14.20;;
70850;SDS011;58475;49.662;9.636;2022-12-13T10:54:54;27.97;;;13.50;;
70850;SDS011;58475;49.662;9.636;2022-12-13T10:57:21;30.47;;;14.73;;
70850;SDS011;58475;49.662;9.636;2022-12-13T10:59:48;29.27;;;14.13;;
70850;SDS011;58475;49.662;9.636;2022-12-13T11:02:34;28.00;;;14.40;;
70850;SDS011;58475;49.662;9.636;2022-12-13T11:07:53;30.83;;;14.95;;
70850;SDS011;58475;49.662;9.636;2022-12-13T11:10:23;28.70;;;14.73;;
70850;SDS011;58475;49.662;9.636;2022-12-13T11:13:21;29.95;;;14.27;;
70850;SDS011;58475;49.662;9.636;2022-12-13T11:15:50;26.27;;;14.05;;
70850;SDS011;58475;49.662;9.636;2022-12-13T11:18:20;27.90;;;13.85;;
70850;SDS011;58475;49.662;9.636;2022-12-13T11:20:59;27.23;;;12.70;;
70850;SDS011;58475;49.662;9.636;2022-12-13T11:23:37;26.83;;;13.10;;
70850;SDS011;58475;49.662;9.636;2022-12-13T11:26:08;26.25;;;13.38;;
70850;SDS011;58475;49.662;9.636;2022-12-13T11:34:17;24.05;;;12.70;;
70850;SDS011;58475;49.662;9.636;2022-12-13T11:39:42;24.83;;;11.25;;
70850;SDS011;58475;49.662;9.636;2022-12-13T11:42:18;26.33;;;11.55;;
70850;SDS011;58475;49.662;9.636;2022-12-13T11:47:43;21.73;;;11.30;;
70850;SDS011;58475;49.662;9.636;2022-12-13T11:50:24;24.45;;;12.32;;
70850;SDS011;58475;49.662;9.636;2022-12-13T11:52:56;28.42;;;12.68;;
70850;SDS011;58475;49.662;9.636;2022-12-13T11:55:45;23.50;;;12.07;;
70850;SDS011;58475;49.662;9.636;2022-12-13T12:01:33;25.05;;;11.88;;
70850;SDS011;58475;49.662;9.636;2022-12-13T12:04:00;23.30;;;11.68;;
70850;SDS011;58475;49.662;9.636;2022-12-13T12:06:34;26.15;;;11.30;;
70850;SDS011;58475;49.662;9.636;2022-12-13T12:09:08;25.92;;;12.05;;
70850;SDS011;58475;49.662;9.636;2022-12-13T12:11:44;22.63;;;11.45;;
70850;SDS011;58475;49.662;9.636;2022-12-13T12:17:10;22.45;;;11.55;;
70850;SDS011;58475;49.662;9.636;2022-12-13T12:19:42;23.20;;;11.13;;
70850;SDS011;58475;49.662;9.636;2022-12-13T12:24:38;20.52;;;10.80;;
70850;SDS011;58475;49.662;9.636;2022-12-13T12:30:00;20.15;;;10.48;;
70850;SDS011;58475;49.662;9.636;2022-12-13T12:44:16;25.00;;;12.35;;
70850;SDS011;58475;49.662;9.636;2022-12-13T13:01:59;20.60;;;10.63;;
70850;SDS011;58475;49.662;9.636;2022-12-13T13:04:15;20.27;;;10.40;;
70850;SDS011;58475;49.662;9.636;2022-12-13T13:06:44;17.38;;;9.35;;
70850;SDS011;58475;49.662;9.636;2022-12-13T13:09:15;24.33;;;10.77;;
70850;SDS011;58475;49.662;9.636;2022-12-13T13:11:42;24.02;;;13.07;;
70850;SDS011;58475;49.662;9.636;2022-12-13T13:14:29;24.02;;;11.23;;
70850;SDS011;58475;49.662;9.636;2022-12-13T13:20:16;19.10;;;9.50;;
70850;SDS011;58475;49.662;9.636;2022-12-13T13:22:44;19.30;;;9.65;;
70850;SDS011;58475;49.662;9.636;2022-12-13T13:25:42;24.25;;;10.80;;
70850;SDS011;58475;49.662;9.636;2022-12-13T13:28:03;24.73;;;11.82;;
70850;SDS011;58475;49.662;9.636;2022-12-13T13:30:31;19.33;;;10.18;;
70850;SDS011;58475;49.662;9.636;2022-12-13T13:32:57;21.90;;;10.60;;
70850;SDS011;58475;49.662;9.636;2022-12-13T13:40:37;18.73;;;9.45;;
70850;SDS011;58475;49.662;9.636;2022-12-13T13:53:52;21.98;;;11.15;;
70850;SDS011;58475;49.662;9.636;2022-12-13T14:06:26;17.30;;;8.63;;
70850;SDS011;58475;49.662;9.636;2022-12-13T14:30:17;22.83;;;11.27;;
70850;SDS011;58475;49.662;9.636;2022-12-13T14:32:45;26.10;;;11.38;;
70850;SDS011;58475;49.662;9.636;2022-12-13T14:35:26;19.48;;;10.50;;
70850;SDS011;58475;49.662;9.636;2022-12-13T14:42:52;24.65;;;12.80;;
70850;SDS011;58475;49.662;9.636;2022-12-13T14:45:23;23.63;;;12.60;;
70850;SDS011;58475;49.662;9.636;2022-12-13T14:47:51;44.40;;;19.73;;
70850;SDS011;58475;49.662;9.636;2022-12-13T14:50:17;34.85;;;15.48;;
70850;SDS011;58475;49.662;9.636;2022-12-13T14:52:43;30.85;;;15.10;;
70850;SDS011;58475;49.662;9.636;2022-12-13T14:58:15;28.15;;;13.80;;
70850;SDS011;58475;49.662;9.636;2022-12-13T15:00:44;23.88;;;12.45;;
70850;SDS011;58475;49.662;9.636;2022-12-13T15:03:10;25.70;;;12.57;;
70850;SDS011;58475;49.662;9.636;2022-12-13T15:05:45;27.35;;;13.45;;
70850;SDS011;58475;49.662;9.636;2022-12-13T15:08:14;31.90;;;14.27;;
70850;SDS011;58475;49.662;9.636;2022-12-13T15:10:50;27.10;;;14.05;;
70850;SDS011;58475;49.662;9.636;2022-12-13T15:13:35;28.65;;;13.73;;
70850;SDS011;58475;49.662;9.636;2022-12-13T15:16:23;30.35;;;13.77;;
70850;SDS011;58475;49.662;9.636;2022-12-13T15:21:59;27.63;;;12.23;;
70850;SDS011;58475;49.662;9.636;2022-12-13T15:24:36;29.43;;;11.90;;
70850;SDS011;58475;49.662;9.636;2022-12-13T15:27:08;28.30;;;11.80;;
70850;SDS011;58475;49.662;9.636;2022-12-13T15:29:35;25.17;;;11.02;;
70850;SDS011;58475;49.662;9.636;2022-12-13T15:32:01;25.93;;;11.63;;
70850;SDS011;58475;49.662;9.636;2022-12-13T15:34:35;26.67;;;12.87;;
70850;SDS011;58475;49.662;9.636;2022-12-13T15:39:37;22.02;;;10.52;;
70850;SDS011;58475;49.662;9.636;2022-12-13T15:42:04;24.92;;;11.38;;
70850;SDS011;58475;49.662;9.636;2022-12-13T15:44:44;18.40;;;9.80;;
70850;SDS011;58475;49.662;9.636;2022-12-13T15:47:12;24.37;;;11.17;;
70850;SDS011;58475;49.662;9.636;2022-12-13T15:49:41;17.53;;;10.10;;
70850;SDS011;58475;49.662;9.636;2022-12-13T15:54:39;24.50;;;10.03;;
70850;SDS011;58475;49.662;9.636;2022-12-13T15:59:39;18.77;;;9.23;;
70850;SDS011;58475;49.662;9.636;2022-12-13T16:02:24;19.13;;;9.43;;
70850;SDS011;58475;49.662;9.636;2022-12-13T16:04:52;19.87;;;9.67;;
70850;SDS011;58475;49.662;9.636;2022-12-13T16:07:36;22.10;;;10.73;;
70850;SDS011;58475;49.662;9.636;2022-12-13T16:10:05;17.73;;;9.43;;
70850;SDS011;58475;49.662;9.636;2022-12-13T16:12:37;20.97;;;11.10;;
70850;SDS011;58475;49.662;9.636;2022-12-13T16:15:29;26.47;;;11.63;;
70850;SDS011;58475;49.662;9.636;2022-12-13T16:18:03;26.23;;;12.73;;
70850;SDS011;58475;49.662;9.636;2022-12-13T16:20:31;29.37;;;13.37;;
70850;SDS011;58475;49.662;9.636;2022-12-13T16:22:57;24.97;;;12.23;;
70850;SDS011;58475;49.662;9.636;2022-12-13T16:25:23;31.53;;;14.47;;
70850;SDS011;58475;49.662;9.636;2022-12-13T16:27:48;31.50;;;14.17;;
70850;SDS011;58475;49.662;9.636;2022-12-13T16:30:22;34.00;;;15.27;;
70850;SDS011;58475;49.662;9.636;2022-12-13T16:32:50;38.73;;;16.87;;
70850;SDS011;58475;49.662;9.636;2022-12-13T16:35:16;29.57;;;15.77;;
70850;SDS011;58475;49.662;9.636;2022-12-13T16:37:42;32.10;;;16.37;;
70850;SDS011;58475;49.662;9.636;2022-12-13T16:40:22;30.63;;;14.27;;
70850;SDS011;58475;49.662;9.636;2022-12-13T16:42:49;28.33;;;14.10;;
70850;SDS011;58475;49.662;9.636;2022-12-13T16:45:15;25.13;;;12.47;;
70850;SDS011;58475;49.662;9.636;2022-12-13T16:47:41;22.43;;;11.40;;
70850;SDS011;58475;49.662;9.636;2022-12-13T16:50:12;25.90;;;12.60;;
70850;SDS011;58475;49.662;9.636;2022-12-13T16:52:39;25.27;;;11.97;;
70850;SDS011;58475;49.662;9.636;2022-12-13T16:55:05;25.93;;;12.70;;
70850;SDS011;58475;49.662;9.636;2022-12-13T16:57:31;25.20;;;12.80;;
70850;SDS011;58475;49.662;9.636;2022-12-13T16:59:57;27.43;;;13.23;;
70850;SDS011;58475;49.662;9.636;2022-12-13T17:02:22;25.00;;;13.50;;
70850;SDS011;58475;49.662;9.636;2022-12-13T17:04:48;22.90;;;11.80;;
70850;SDS011;58475;49.662;9.636;2022-12-13T17:07:14;24.43;;;12.80;;
70850;SDS011;58475;49.662;9.636;2022-12-13T17:09:40;24.97;;;12.83;;